sensor_id;sensor_type;location;lat;lon;timestamp;temperature;humidity
26049;DHT22;13822;51.568;5.086;2023-05-02T04:57:51;10.10;99.90
26049;DHT22;13822;51.568;5.086;2023-05-02T05:02:52;10.10;99.90
26049;DHT22;13822;51.568;5.086;2023-05-02T05:07:54;10.10;99.90
26049;DHT22;13822;51.568;5.086;2023-05-02T05:12:56;10.20;99.90
26049;DHT22;13822;51.568;5.086;2023-05-02T05:17:58;10.10;99.90
26049;DHT22;13822;51.568;5.086;2023-05-02T05:23:00;10.10;99.90
26049;DHT22;13822;51.568;5.086;2023-05-02T05:28:02;10.20;99.90
26049;DHT22;13822;51.568;5.086;2023-05-02T05:33:04;10.20;99.90
26049;DHT22;13822;51.568;5.086;2023-05-02T05:38:06;10.20;99.90
26049;DHT22;13822;51.568;5.086;2023-05-02T05:43:08;10.10;99.90
26049;DHT22;13822;51.568;5.086;2023-05-02T05:48:10;10.10;99.90
26049;DHT22;13822;51.568;5.086;2023-05-02T05:53:12;10.10;99.90
26049;DHT22;13822;51.568;5.086;2023-05-02T05:58:15;10.20;99.90
26049;DHT22;13822;51.568;5.086;2023-05-02T06:03:16;10.20;99.90
26049;DHT22;13822;51.568;5.086;2023-05-02T06:08:18;10.20;99.90
26049;DHT22;13822;51.568;5.086;2023-05-02T06:13:21;10.30;99.90
26049;DHT22;13822;51.568;5.086;2023-05-02T06:18:23;10.30;99.90
26049;DHT22;13822;51.568;5.086;2023-05-02T06:23:25;10.40;99.90
26049;DHT22;13822;51.568;5.086;2023-05-02T06:28:27;10.40;99.90
26049;DHT22;13822;51.568;5.086;2023-05-02T06:33:30;10.50;99.90
26049;DHT22;13822;51.568;5.086;2023-05-02T06:38:32;10.60;99.90
26049;DHT22;13822;51.568;5.086;2023-05-02T06:43:34;10.60;99.90
26049;DHT22;13822;51.568;5.086;2023-05-02T06:48:36;10.70;99.90
26049;DHT22;13822;51.568;5.086;2023-05-02T06:53:38;10.80;99.90
26049;DHT22;13822;51.568;5.086;2023-05-02T06:58:39;10.90;99.90
26049;DHT22;13822;51.568;5.086;2023-05-02T07:03:41;11.10;99.90
26049;DHT22;13822;51.568;5.086;2023-05-02T07:08:43;11.10;99.90
26049;DHT22;13822;51.568;5.086;2023-05-02T07:13:45;11.00;99.90
26049;DHT22;13822;51.568;5.086;2023-05-02T07:18:47;11.00;99.90
26049;DHT22;13822;51.568;5.086;2023-05-02T07:23:49;11.00;99.90
26049;DHT22;13822;51.568;5.086;2023-05-02T07:28:51;10.90;99.90
26049;DHT22;13822;51.568;5.086;2023-05-02T07:33:52;11.00;99.90
26049;DHT22;13822;51.568;5.086;2023-05-02T07:38:54;11.00;99.90
26049;DHT22;13822;51.568;5.086;2023-05-02T07:43:56;11.00;99.90
26049;DHT22;13822;51.568;5.086;2023-05-02T07:48:58;11.00;99.90
26049;DHT22;13822;51.568;5.086;2023-05-02T07:54:00;10.90;99.90
26049;DHT22;13822;51.568;5.086;2023-05-02T07:59:02;11.00;99.90
26049;DHT22;13822;51.568;5.086;2023-05-02T08:04:06;11.00;99.90
26049;DHT22;13822;51.568;5.086;2023-05-02T08:09:09;11.00;99.90
26049;DHT22;13822;51.568;5.086;2023-05-02T08:14:11;10.90;99.90
26049;DHT22;13822;51.568;5.086;2023-05-02T08:19:13;10.80;99.90
26049;DHT22;13822;51.568;5.086;2023-05-02T08:24:16;10.90;99.90
26049;DHT22;13822;51.568;5.086;2023-05-02T08:29:18;10.90;99.90
26049;DHT22;13822;51.568;5.086;2023-05-02T08:34:20;11.10;99.90
26049;DHT22;13822;51.568;5.086;2023-05-02T08:39:21;11.20;99.90
26049;DHT22;13822;51.568;5.086;2023-05-02T08:44:23;11.30;99.90
26049;DHT22;13822;51.568;5.086;2023-05-02T08:49:25;11.40;99.90
26049;DHT22;13822;51.568;5.086;2023-05-02T08:54:28;11.50;99.90
26049;DHT22;13822;51.568;5.086;2023-05-02T08:59:31;11.70;99.90
26049;DHT22;13822;51.568;5.086;2023-05-02T09:04:32;11.80;99.90
26049;DHT22;13822;51.568;5.086;2023-05-02T09:09:35;11.70;99.90
26049;DHT22;13822;51.568;5.086;2023-05-02T09:14:38;11.60;99.90
26049;DHT22;13822;51.568;5.086;2023-05-02T09:19:40;11.60;99.90
26049;DHT22;13822;51.568;5.086;2023-05-02T09:24:42;11.70;99.90
26049;DHT22;13822;51.568;5.086;2023-05-02T09:29:44;11.90;99.90
26049;DHT22;13822;51.568;5.086;2023-05-02T09:35:05;12.10;99.90
26049;DHT22;13822;51.568;5.086;2023-05-02T09:40:08;12.10;99.90
26049;DHT22;13822;51.568;5.086;2023-05-02T09:45:20;12.10;99.90
26049;DHT22;13822;51.568;5.086;2023-05-02T09:50:33;12.00;99.90
26049;DHT22;13822;51.568;5.086;2023-05-02T09:55:36;11.90;99.90
26049;DHT22;13822;51.568;5.086;2023-05-02T10:00:39;12.10;99.90
26049;DHT22;13822;51.568;5.086;2023-05-02T10:05:45;12.00;99.90
26049;DHT22;13822;51.568;5.086;2023-05-02T10:10:54;12.00;99.90
26049;DHT22;13822;51.568;5.086;2023-05-02T10:21:04;12.30;99.90
26049;DHT22;13822;51.568;5.086;2023-05-02T10:26:11;12.30;99.90
26049;DHT22;13822;51.568;5.086;2023-05-02T10:31:15;12.40;99.90
26049;DHT22;13822;51.568;5.086;2023-05-02T10:36:19;12.90;99.90
26049;DHT22;13822;51.568;5.086;2023-05-02T10:41:22;13.10;98.50
26049;DHT22;13822;51.568;5.086;2023-05-02T10:51:40;13.10;99.70
26049;DHT22;13822;51.568;5.086;2023-05-02T11:02:02;13.30;99.50
26049;DHT22;13822;51.568;5.086;2023-05-02T11:07:17;13.00;99.90
26049;DHT22;13822;51.568;5.086;2023-05-02T11:33:37;13.90;95.40
26049;DHT22;13822;51.568;5.086;2023-05-02T11:38:39;14.40;93.20
26049;DHT22;13822;51.568;5.086;2023-05-02T11:43:41;14.60;91.90
26049;DHT22;13822;51.568;5.086;2023-05-02T11:48:43;14.00;88.00
26049;DHT22;13822;51.568;5.086;2023-05-02T11:53:45;14.20;88.20
26049;DHT22;13822;51.568;5.086;2023-05-02T11:58:48;14.50;89.90
26049;DHT22;13822;51.568;5.086;2023-05-02T12:04:04;14.30;89.40
26049;DHT22;13822;51.568;5.086;2023-05-02T12:09:09;14.70;90.10
26049;DHT22;13822;51.568;5.086;2023-05-02T12:14:25;15.60;86.20
26049;DHT22;13822;51.568;5.086;2023-05-02T12:19:36;16.30;79.60
26049;DHT22;13822;51.568;5.086;2023-05-02T12:24:38;15.70;77.00
26049;DHT22;13822;51.568;5.086;2023-05-02T12:29:42;15.10;75.60
26049;DHT22;13822;51.568;5.086;2023-05-02T12:34:45;15.10;74.90
26049;DHT22;13822;51.568;5.086;2023-05-02T12:39:47;15.50;74.20
26049;DHT22;13822;51.568;5.086;2023-05-02T12:44:50;15.40;72.20
26049;DHT22;13822;51.568;5.086;2023-05-02T12:55:13;16.40;71.00
26049;DHT22;13822;51.568;5.086;2023-05-02T13:00:16;16.10;67.90
26049;DHT22;13822;51.568;5.086;2023-05-02T13:05:21;15.70;68.90
26049;DHT22;13822;51.568;5.086;2023-05-02T13:10:24;15.70;70.40
26049;DHT22;13822;51.568;5.086;2023-05-02T13:15:26;16.20;69.10
26049;DHT22;13822;51.568;5.086;2023-05-02T13:20:28;17.20;62.50
26049;DHT22;13822;51.568;5.086;2023-05-02T13:25:30;17.50;60.40
26049;DHT22;13822;51.568;5.086;2023-05-02T13:30:32;16.90;61.30
26049;DHT22;13822;51.568;5.086;2023-05-02T13:35:34;17.30;62.10
26049;DHT22;13822;51.568;5.086;2023-05-02T13:40:36;17.90;57.90
26049;DHT22;13822;51.568;5.086;2023-05-02T13:45:38;18.50;56.00
26049;DHT22;13822;51.568;5.086;2023-05-02T13:50:40;18.40;56.10
26049;DHT22;13822;51.568;5.086;2023-05-02T13:55:41;18.10;55.00
26049;DHT22;13822;51.568;5.086;2023-05-02T14:00:43;18.00;55.30
26049;DHT22;13822;51.568;5.086;2023-05-02T14:05:45;18.60;54.80
26049;DHT22;13822;51.568;5.086;2023-05-02T14:10:47;19.20;51.70
26049;DHT22;13822;51.568;5.086;2023-05-02T14:15:49;19.40;50.40
26049;DHT22;13822;51.568;5.086;2023-05-02T14:20:51;18.80;48.50
26049;DHT22;13822;51.568;5.086;2023-05-02T14:25:53;18.60;48.50
26049;DHT22;13822;51.568;5.086;2023-05-02T14:30:56;19.00;48.10
26049;DHT22;13822;51.568;5.086;2023-05-02T14:35:57;19.20;47.40
26049;DHT22;13822;51.568;5.086;2023-05-02T14:40:59;18.70;46.70
26049;DHT22;13822;51.568;5.086;2023-05-02T14:46:03;18.60;47.80
26049;DHT22;13822;51.568;5.086;2023-05-02T14:51:05;18.10;47.00
26049;DHT22;13822;51.568;5.086;2023-05-02T14:56:11;18.40;48.20
26049;DHT22;13822;51.568;5.086;2023-05-02T15:01:14;18.60;47.70
26049;DHT22;13822;51.568;5.086;2023-05-02T15:06:20;19.00;47.10
26049;DHT22;13822;51.568;5.086;2023-05-02T15:11:22;19.10;43.10
26049;DHT22;13822;51.568;5.086;2023-05-02T15:16:23;18.90;44.10
26049;DHT22;13822;51.568;5.086;2023-05-02T15:21:27;18.90;44.30
26049;DHT22;13822;51.568;5.086;2023-05-02T15:26:29;19.10;42.80
26049;DHT22;13822;51.568;5.086;2023-05-02T15:31:31;19.10;43.30
26049;DHT22;13822;51.568;5.086;2023-05-02T15:36:34;19.10;43.70
26049;DHT22;13822;51.568;5.086;2023-05-02T15:41:37;18.70;42.30
26049;DHT22;13822;51.568;5.086;2023-05-02T15:46:39;18.50;43.80
26049;DHT22;13822;51.568;5.086;2023-05-02T15:51:47;18.60;43.40
26049;DHT22;13822;51.568;5.086;2023-05-02T15:56:49;18.60;43.70
26049;DHT22;13822;51.568;5.086;2023-05-02T16:01:51;18.50;44.30
26049;DHT22;13822;51.568;5.086;2023-05-02T16:06:53;17.90;43.50
26049;DHT22;13822;51.568;5.086;2023-05-02T16:11:55;17.10;44.80
26049;DHT22;13822;51.568;5.086;2023-05-02T16:16:58;16.70;46.30
26049;DHT22;13822;51.568;5.086;2023-05-02T16:22:00;16.50;47.50
26049;DHT22;13822;51.568;5.086;2023-05-02T16:27:02;16.30;46.40
26049;DHT22;13822;51.568;5.086;2023-05-02T16:32:05;15.90;47.70
26049;DHT22;13822;51.568;5.086;2023-05-02T16:37:08;15.60;49.10
26049;DHT22;13822;51.568;5.086;2023-05-02T16:42:10;15.50;48.30
26049;DHT22;13822;51.568;5.086;2023-05-02T16:47:12;15.30;48.80
26049;DHT22;13822;51.568;5.086;2023-05-02T16:52:15;15.00;48.50
26049;DHT22;13822;51.568;5.086;2023-05-02T16:57:17;14.90;49.30
26049;DHT22;13822;51.568;5.086;2023-05-02T17:02:20;14.80;49.10
26049;DHT22;13822;51.568;5.086;2023-05-02T17:07:23;14.70;49.40
26049;DHT22;13822;51.568;5.086;2023-05-02T17:12:24;14.50;49.80
26049;DHT22;13822;51.568;5.086;2023-05-02T17:17:27;14.40;51.40
26049;DHT22;13822;51.568;5.086;2023-05-02T17:22:28;14.30;52.10
26049;DHT22;13822;51.568;5.086;2023-05-02T17:27:31;14.00;52.40
26049;DHT22;13822;51.568;5.086;2023-05-02T17:32:33;14.00;52.60
26049;DHT22;13822;51.568;5.086;2023-05-02T17:37:35;13.90;52.70
26049;DHT22;13822;51.568;5.086;2023-05-02T17:42:41;13.80;52.50
26049;DHT22;13822;51.568;5.086;2023-05-02T17:47:49;13.50;53.80
26049;DHT22;13822;51.568;5.086;2023-05-02T17:52:51;13.50;55.10
26049;DHT22;13822;51.568;5.086;2023-05-02T17:57:53;13.30;56.00
26049;DHT22;13822;51.568;5.086;2023-05-02T18:02:55;13.10;56.50
26049;DHT22;13822;51.568;5.086;2023-05-02T18:07:57;12.90;57.60
26049;DHT22;13822;51.568;5.086;2023-05-02T18:12:59;12.70;58.20
26049;DHT22;13822;51.568;5.086;2023-05-02T18:18:01;12.60;58.30
26049;DHT22;13822;51.568;5.086;2023-05-02T18:23:03;12.40;59.00
26049;DHT22;13822;51.568;5.086;2023-05-02T18:28:06;12.30;59.20
26049;DHT22;13822;51.568;5.086;2023-05-02T18:33:08;12.30;59.40
26049;DHT22;13822;51.568;5.086;2023-05-02T18:38:10;12.10;59.60
26049;DHT22;13822;51.568;5.086;2023-05-02T18:43:12;11.90;60.00
26049;DHT22;13822;51.568;5.086;2023-05-02T18:48:14;11.80;60.90
26049;DHT22;13822;51.568;5.086;2023-05-02T18:53:16;11.70;61.90
26049;DHT22;13822;51.568;5.086;2023-05-02T18:58:17;11.60;61.90
26049;DHT22;13822;51.568;5.086;2023-05-02T19:03:19;11.50;62.40
26049;DHT22;13822;51.568;5.086;2023-05-02T19:08:22;11.40;62.50
26049;DHT22;13822;51.568;5.086;2023-05-02T19:13:24;11.30;63.90
26049;DHT22;13822;51.568;5.086;2023-05-02T19:18:28;11.10;64.10
26049;DHT22;13822;51.568;5.086;2023-05-02T19:23:30;11.10;64.60
26049;DHT22;13822;51.568;5.086;2023-05-02T19:28:31;11.00;65.00
26049;DHT22;13822;51.568;5.086;2023-05-02T19:33:37;10.90;65.50
26049;DHT22;13822;51.568;5.086;2023-05-02T19:39:05;10.80;66.20
26049;DHT22;13822;51.568;5.086;2023-05-02T19:45:16;10.70;66.80
26049;DHT22;13822;51.568;5.086;2023-05-02T19:51:22;10.50;68.70
26049;DHT22;13822;51.568;5.086;2023-05-02T19:57:10;10.40;69.70
26049;DHT22;13822;51.568;5.086;2023-05-02T20:02:41;10.30;71.80
26049;DHT22;13822;51.568;5.086;2023-05-02T20:08:34;10.20;72.00
26049;DHT22;13822;51.568;5.086;2023-05-02T20:14:10;10.10;74.30
26049;DHT22;13822;51.568;5.086;2023-05-02T20:26:22;9.80;77.80
26049;DHT22;13822;51.568;5.086;2023-05-02T20:32:12;9.80;78.60
26049;DHT22;13822;51.568;5.086;2023-05-02T20:38:41;9.60;79.00
26049;DHT22;13822;51.568;5.086;2023-05-02T20:50:20;9.50;83.50
26049;DHT22;13822;51.568;5.086;2023-05-02T20:56:23;9.30;84.60
26049;DHT22;13822;51.568;5.086;2023-05-02T21:01:53;9.20;87.20
26049;DHT22;13822;51.568;5.086;2023-05-02T21:07:24;9.10;89.80
26049;DHT22;13822;51.568;5.086;2023-05-02T21:12:57;9.10;90.30
26049;DHT22;13822;51.568;5.086;2023-05-02T21:18:33;9.00;91.20
26049;DHT22;13822;51.568;5.086;2023-05-02T21:24:14;9.00;90.90
26049;DHT22;13822;51.568;5.086;2023-05-02T21:30:05;8.90;92.80
26049;DHT22;13822;51.568;5.086;2023-05-02T21:35:53;8.80;93.20
26049;DHT22;13822;51.568;5.086;2023-05-02T21:41:23;8.70;94.10
26049;DHT22;13822;51.568;5.086;2023-05-02T21:47:01;8.60;94.30
26049;DHT22;13822;51.568;5.086;2023-05-02T21:52:20;8.50;95.50
26049;DHT22;13822;51.568;5.086;2023-05-02T21:57:47;8.40;97.20
26049;DHT22;13822;51.568;5.086;2023-05-02T22:03:54;8.40;98.80
26049;DHT22;13822;51.568;5.086;2023-05-02T22:10:05;8.30;99.90
26049;DHT22;13822;51.568;5.086;2023-05-02T22:15:44;8.20;99.90
26049;DHT22;13822;51.568;5.086;2023-05-02T22:32:44;8.10;99.90
26049;DHT22;13822;51.568;5.086;2023-05-02T22:52:00;7.80;99.90
26049;DHT22;13822;51.568;5.086;2023-05-02T22:58:24;7.80;99.90
26049;DHT22;13822;51.568;5.086;2023-05-02T23:11:00;7.70;99.90
26049;DHT22;13822;51.568;5.086;2023-05-02T23:17:13;7.70;99.90
26049;DHT22;13822;51.568;5.086;2023-05-02T23:47:29;7.60;99.90
26049;DHT22;13822;51.568;5.086;2023-05-02T23:52:57;7.60;99.90
26049;DHT22;13822;51.568;5.086;2023-05-02T23:58:50;7.60;99.90
